sensor_id;sensor_type;location;lat;lon;timestamp;pressure;altitude;pressure_sealevel;temperature;humidity
17764;BME280;22245;52.832;13.816;2023-08-31T00:01:05;100336.25;;;13.79;92.03
17764;BME280;22245;52.832;13.816;2023-08-31T00:04:27;100343.78;;;13.84;92.21
17764;BME280;22245;52.832;13.816;2023-08-31T00:07:49;100349.00;;;13.85;92.85
17764;BME280;22245;52.832;13.816;2023-08-31T00:11:11;100356.38;;;13.92;92.54
17764;BME280;22245;52.832;13.816;2023-08-31T00:14:33;100356.88;;;13.95;92.58
17764;BME280;22245;52.832;13.816;2023-08-31T00:17:56;100350.84;;;13.93;92.91
17764;BME280;22245;52.832;13.816;2023-08-31T00:21:18;100347.50;;;13.91;92.60
17764;BME280;22245;52.832;13.816;2023-08-31T00:24:40;100338.47;;;13.92;92.80
17764;BME280;22245;52.832;13.816;2023-08-31T00:28:03;100340.13;;;13.93;92.85
17764;BME280;22245;52.832;13.816;2023-08-31T00:31:25;100340.00;;;13.95;93.85
17764;BME280;22245;52.832;13.816;2023-08-31T00:34:49;100340.47;;;13.98;93.49
17764;BME280;22245;52.832;13.816;2023-08-31T00:38:11;100340.84;;;14.03;93.98
17764;BME280;22245;52.832;13.816;2023-08-31T00:41:33;100344.53;;;14.02;93.98
17764;BME280;22245;52.832;13.816;2023-08-31T00:44:54;100338.31;;;14.02;93.68
17764;BME280;22245;52.832;13.816;2023-08-31T00:48:17;100334.66;;;14.03;94.33
17764;BME280;22245;52.832;13.816;2023-08-31T00:51:41;100337.19;;;14.04;94.56
17764;BME280;22245;52.832;13.816;2023-08-31T00:55:03;100321.25;;;14.03;94.30
17764;BME280;22245;52.832;13.816;2023-08-31T00:58:26;100325.63;;;14.04;95.32
17764;BME280;22245;52.832;13.816;2023-08-31T01:01:53;100319.25;;;14.05;95.00
17764;BME280;22245;52.832;13.816;2023-08-31T01:05:27;100309.22;;;14.07;94.59
17764;BME280;22245;52.832;13.816;2023-08-31T01:08:59;100315.09;;;14.11;94.57
17764;BME280;22245;52.832;13.816;2023-08-31T01:12:34;100307.22;;;14.09;94.95
17764;BME280;22245;52.832;13.816;2023-08-31T01:16:03;100308.41;;;14.07;95.06
17764;BME280;22245;52.832;13.816;2023-08-31T01:19:39;100308.22;;;14.08;95.64
17764;BME280;22245;52.832;13.816;2023-08-31T01:23:04;100298.50;;;14.07;95.31
17764;BME280;22245;52.832;13.816;2023-08-31T01:26:30;100307.72;;;14.13;95.18
17764;BME280;22245;52.832;13.816;2023-08-31T01:29:54;100306.41;;;14.17;94.23
17764;BME280;22245;52.832;13.816;2023-08-31T01:33:17;100309.41;;;14.14;94.59
17764;BME280;22245;52.832;13.816;2023-08-31T01:36:42;100313.75;;;14.15;94.55
17764;BME280;22245;52.832;13.816;2023-08-31T01:40:09;100307.53;;;14.14;95.59
17764;BME280;22245;52.832;13.816;2023-08-31T01:43:36;100314.75;;;14.14;95.09
17764;BME280;22245;52.832;13.816;2023-08-31T01:47:05;100310.06;;;14.16;95.34
17764;BME280;22245;52.832;13.816;2023-08-31T01:50:27;100311.91;;;14.15;94.93
17764;BME280;22245;52.832;13.816;2023-08-31T01:53:49;100321.13;;;14.13;94.75
17764;BME280;22245;52.832;13.816;2023-08-31T01:57:11;100321.94;;;14.13;94.67
17764;BME280;22245;52.832;13.816;2023-08-31T02:00:58;100327.28;;;14.13;93.83
17764;BME280;22245;52.832;13.816;2023-08-31T02:04:21;100322.78;;;14.14;93.36
17764;BME280;22245;52.832;13.816;2023-08-31T02:07:42;100337.50;;;14.10;94.19
17764;BME280;22245;52.832;13.816;2023-08-31T02:11:04;100344.03;;;14.07;94.17
17764;BME280;22245;52.832;13.816;2023-08-31T02:14:25;100345.22;;;14.13;94.28
17764;BME280;22245;52.832;13.816;2023-08-31T02:17:49;100355.94;;;14.13;95.14
17764;BME280;22245;52.832;13.816;2023-08-31T02:21:11;100352.25;;;14.14;95.76
17764;BME280;22245;52.832;13.816;2023-08-31T02:24:34;100355.28;;;14.19;95.85
17764;BME280;22245;52.832;13.816;2023-08-31T02:27:56;100361.31;;;14.29;95.88
17764;BME280;22245;52.832;13.816;2023-08-31T02:31:17;100360.31;;;14.39;95.55
17764;BME280;22245;52.832;13.816;2023-08-31T02:34:41;100365.50;;;14.48;95.13
17764;BME280;22245;52.832;13.816;2023-08-31T02:38:03;100371.06;;;14.55;94.72
17764;BME280;22245;52.832;13.816;2023-08-31T02:41:24;100374.06;;;14.60;94.69
17764;BME280;22245;52.832;13.816;2023-08-31T02:44:46;100368.91;;;14.67;93.95
17764;BME280;22245;52.832;13.816;2023-08-31T02:48:07;100368.59;;;14.70;93.86
17764;BME280;22245;52.832;13.816;2023-08-31T02:51:31;100374.78;;;14.71;94.35
17764;BME280;22245;52.832;13.816;2023-08-31T02:54:53;100374.44;;;14.74;94.56
17764;BME280;22245;52.832;13.816;2023-08-31T02:58:15;100374.78;;;14.79;94.36
17764;BME280;22245;52.832;13.816;2023-08-31T03:01:37;100377.97;;;14.83;93.87
17764;BME280;22245;52.832;13.816;2023-08-31T03:04:59;100376.94;;;14.84;94.41
17764;BME280;22245;52.832;13.816;2023-08-31T03:08:23;100385.19;;;14.82;94.19
17764;BME280;22245;52.832;13.816;2023-08-31T03:11:45;100373.25;;;14.85;94.79
17764;BME280;22245;52.832;13.816;2023-08-31T03:15:08;100386.34;;;14.88;93.90
17764;BME280;22245;52.832;13.816;2023-08-31T03:18:31;100386.34;;;14.88;93.27
17764;BME280;22245;52.832;13.816;2023-08-31T03:21:53;100389.00;;;14.88;93.54
17764;BME280;22245;52.832;13.816;2023-08-31T03:25:16;100381.81;;;14.88;93.52
17764;BME280;22245;52.832;13.816;2023-08-31T03:28:40;100378.94;;;14.90;92.95
17764;BME280;22245;52.832;13.816;2023-08-31T03:32:03;100383.50;;;14.89;93.26
17764;BME280;22245;52.832;13.816;2023-08-31T03:35:24;100395.72;;;14.92;93.58
17764;BME280;22245;52.832;13.816;2023-08-31T03:38:51;100397.56;;;14.92;93.96
17764;BME280;22245;52.832;13.816;2023-08-31T03:42:15;100401.41;;;14.89;94.17
17764;BME280;22245;52.832;13.816;2023-08-31T03:45:37;100399.59;;;14.89;94.75
17764;BME280;22245;52.832;13.816;2023-08-31T03:48:58;100403.44;;;14.87;95.06
17764;BME280;22245;52.832;13.816;2023-08-31T03:52:20;100409.78;;;14.86;94.51
17764;BME280;22245;52.832;13.816;2023-08-31T03:55:41;100405.63;;;14.83;93.65
17764;BME280;22245;52.832;13.816;2023-08-31T03:59:05;100403.28;;;14.80;93.88
17764;BME280;22245;52.832;13.816;2023-08-31T04:02:26;100418.34;;;14.81;94.13
17764;BME280;22245;52.832;13.816;2023-08-31T04:05:53;100413.16;;;14.80;94.34
17764;BME280;22245;52.832;13.816;2023-08-31T04:09:15;100411.31;;;14.80;94.08
17764;BME280;22245;52.832;13.816;2023-08-31T04:12:37;100414.31;;;14.77;93.29
17764;BME280;22245;52.832;13.816;2023-08-31T04:16:01;100417.31;;;14.74;93.85
17764;BME280;22245;52.832;13.816;2023-08-31T04:19:24;100422.00;;;14.72;92.96
17764;BME280;22245;52.832;13.816;2023-08-31T04:22:46;100430.06;;;14.72;92.71
17764;BME280;22245;52.832;13.816;2023-08-31T04:26:10;100432.38;;;14.67;91.90
17764;BME280;22245;52.832;13.816;2023-08-31T04:29:33;100426.00;;;14.59;93.00
17764;BME280;22245;52.832;13.816;2023-08-31T04:32:56;100433.38;;;14.57;93.32
17764;BME280;22245;52.832;13.816;2023-08-31T04:36:18;100442.06;;;14.51;93.32
17764;BME280;22245;52.832;13.816;2023-08-31T04:39:39;100442.22;;;14.50;93.49
17764;BME280;22245;52.832;13.816;2023-08-31T04:43:01;100440.06;;;14.53;92.04
17764;BME280;22245;52.832;13.816;2023-08-31T04:46:22;100447.44;;;14.51;92.42
17764;BME280;22245;52.832;13.816;2023-08-31T04:49:45;100450.75;;;14.45;92.91
17764;BME280;22245;52.832;13.816;2023-08-31T04:53:07;100455.78;;;14.40;92.30
17764;BME280;22245;52.832;13.816;2023-08-31T04:56:30;100455.78;;;14.40;93.33
17764;BME280;22245;52.832;13.816;2023-08-31T04:59:53;100465.50;;;14.41;92.94
17764;BME280;22245;52.832;13.816;2023-08-31T05:03:14;100461.28;;;14.38;92.53
17764;BME280;22245;52.832;13.816;2023-08-31T05:06:38;100465.97;;;14.36;93.69
17764;BME280;22245;52.832;13.816;2023-08-31T05:10:00;100456.75;;;14.39;92.21
17764;BME280;22245;52.832;13.816;2023-08-31T05:13:22;100459.75;;;14.36;91.54
17764;BME280;22245;52.832;13.816;2023-08-31T05:16:43;100462.63;;;14.34;92.54
17764;BME280;22245;52.832;13.816;2023-08-31T05:20:06;100465.13;;;14.36;92.43
17764;BME280;22245;52.832;13.816;2023-08-31T05:23:31;100465.50;;;14.41;92.25
17764;BME280;22245;52.832;13.816;2023-08-31T05:26:53;100463.63;;;14.41;92.91
17764;BME280;22245;52.832;13.816;2023-08-31T05:30:15;100463.16;;;14.46;92.20
17764;BME280;22245;52.832;13.816;2023-08-31T05:33:37;100466.16;;;14.43;92.28
17764;BME280;22245;52.832;13.816;2023-08-31T05:36:58;100473.88;;;14.46;92.38
17764;BME280;22245;52.832;13.816;2023-08-31T05:40:22;100475.88;;;14.44;92.91
17764;BME280;22245;52.832;13.816;2023-08-31T05:43:44;100480.56;;;14.42;92.75
17764;BME280;22245;52.832;13.816;2023-08-31T05:47:06;100486.94;;;14.41;93.38
17764;BME280;22245;52.832;13.816;2023-08-31T05:50:28;100490.28;;;14.43;93.10
17764;BME280;22245;52.832;13.816;2023-08-31T05:53:49;100486.94;;;14.41;93.91
17764;BME280;22245;52.832;13.816;2023-08-31T05:57:13;100492.78;;;14.44;93.18
17764;BME280;22245;52.832;13.816;2023-08-31T06:00:35;100504.84;;;14.48;93.14
17764;BME280;22245;52.832;13.816;2023-08-31T06:03:58;100506.53;;;14.50;93.63
17764;BME280;22245;52.832;13.816;2023-08-31T06:07:20;100503.53;;;14.53;93.29
17764;BME280;22245;52.832;13.816;2023-08-31T06:10:42;100516.44;;;14.57;92.96
17764;BME280;22245;52.832;13.816;2023-08-31T06:14:06;100519.78;;;14.59;93.21
17764;BME280;22245;52.832;13.816;2023-08-31T06:17:28;100519.13;;;14.57;93.43
17764;BME280;22245;52.832;13.816;2023-08-31T06:20:50;100536.88;;;14.58;92.85
17764;BME280;22245;52.832;13.816;2023-08-31T06:24:12;100524.34;;;14.59;93.18
17764;BME280;22245;52.832;13.816;2023-08-31T06:27:34;100526.16;;;14.58;92.85
17764;BME280;22245;52.832;13.816;2023-08-31T06:30:58;100522.47;;;14.59;93.56
17764;BME280;22245;52.832;13.816;2023-08-31T06:34:19;100528.69;;;14.60;93.08
17764;BME280;22245;52.832;13.816;2023-08-31T06:37:41;100530.84;;;14.65;93.37
17764;BME280;22245;52.832;13.816;2023-08-31T06:41:03;100526.19;;;14.67;93.06
17764;BME280;22245;52.832;13.816;2023-08-31T06:44:25;100526.34;;;14.65;92.41
17764;BME280;22245;52.832;13.816;2023-08-31T06:47:48;100525.16;;;14.68;92.77
17764;BME280;22245;52.832;13.816;2023-08-31T06:51:10;100529.53;;;14.69;93.29
17764;BME280;22245;52.832;13.816;2023-08-31T06:54:32;100533.59;;;14.73;92.87
17764;BME280;22245;52.832;13.816;2023-08-31T06:57:54;100543.97;;;14.76;91.77
17764;BME280;22245;52.832;13.816;2023-08-31T07:01:17;100554.56;;;14.78;91.72
17764;BME280;22245;52.832;13.816;2023-08-31T07:04:40;100553.69;;;14.77;91.01
17764;BME280;22245;52.832;13.816;2023-08-31T07:08:02;100560.41;;;14.73;91.35
17764;BME280;22245;52.832;13.816;2023-08-31T07:15:45;100572.34;;;14.87;92.12
17764;BME280;22245;52.832;13.816;2023-08-31T07:20:07;100573.53;;;14.93;92.31
17764;BME280;22245;52.832;13.816;2023-08-31T07:24:45;100570.19;;;14.99;90.34
17764;BME280;22245;52.832;13.816;2023-08-31T07:33:46;100568.88;;;15.11;88.59
17764;BME280;22245;52.832;13.816;2023-08-31T07:38:04;100565.16;;;15.12;87.92
17764;BME280;22245;52.832;13.816;2023-08-31T07:42:00;100573.59;;;15.17;89.17
17764;BME280;22245;52.832;13.816;2023-08-31T07:46:10;100578.78;;;15.27;88.61
17764;BME280;22245;52.832;13.816;2023-08-31T07:49:31;100580.44;;;15.28;87.79
17764;BME280;22245;52.832;13.816;2023-08-31T07:52:53;100586.34;;;15.32;86.64
17764;BME280;22245;52.832;13.816;2023-08-31T07:56:15;100597.91;;;15.32;84.81
17764;BME280;22245;52.832;13.816;2023-08-31T07:59:37;100607.81;;;15.32;85.18
17764;BME280;22245;52.832;13.816;2023-08-31T08:03:00;100605.47;;;15.29;83.65
17764;BME280;22245;52.832;13.816;2023-08-31T08:06:21;100595.41;;;15.31;82.85
17764;BME280;22245;52.832;13.816;2023-08-31T08:09:43;100608.47;;;15.34;82.93
17764;BME280;22245;52.832;13.816;2023-08-31T08:13:06;100601.09;;;15.36;83.25
17764;BME280;22245;52.832;13.816;2023-08-31T08:16:28;100597.75;;;15.42;82.72
17764;BME280;22245;52.832;13.816;2023-08-31T08:19:49;100608.00;;;15.47;81.91
17764;BME280;22245;52.832;13.816;2023-08-31T08:23:11;100611.69;;;15.54;81.97
17764;BME280;22245;52.832;13.816;2023-08-31T08:26:33;100611.69;;;15.62;82.03
17764;BME280;22245;52.832;13.816;2023-08-31T08:29:57;100614.88;;;15.74;81.17
17764;BME280;22245;52.832;13.816;2023-08-31T08:33:18;100607.31;;;15.78;81.39
17764;BME280;22245;52.832;13.816;2023-08-31T08:36:40;100604.78;;;15.85;80.67
17764;BME280;22245;52.832;13.816;2023-08-31T08:40:03;100607.19;;;15.96;80.58
17764;BME280;22245;52.832;13.816;2023-08-31T08:43:26;100603.28;;;15.99;76.04
17764;BME280;22245;52.832;13.816;2023-08-31T08:46:50;100610.00;;;15.95;77.15
17764;BME280;22245;52.832;13.816;2023-08-31T08:50:13;100610.50;;;15.90;75.61
17764;BME280;22245;52.832;13.816;2023-08-31T08:53:35;100616.91;;;15.89;74.42
17764;BME280;22245;52.832;13.816;2023-08-31T08:56:58;100625.25;;;15.86;74.99
17764;BME280;22245;52.832;13.816;2023-08-31T09:00:21;100621.44;;;15.88;73.88
17764;BME280;22245;52.832;13.816;2023-08-31T09:03:44;100630.31;;;15.89;75.28
17764;BME280;22245;52.832;13.816;2023-08-31T09:07:07;100629.16;;;15.91;74.25
17764;BME280;22245;52.832;13.816;2023-08-31T09:10:36;100632.84;;;15.90;71.98
17764;BME280;22245;52.832;13.816;2023-08-31T09:13:58;100628.28;;;15.83;72.43
17764;BME280;22245;52.832;13.816;2023-08-31T09:17:23;100630.16;;;15.82;73.45
17764;BME280;22245;52.832;13.816;2023-08-31T09:20:47;100634.50;;;15.83;73.92
17764;BME280;22245;52.832;13.816;2023-08-31T09:24:09;100620.75;;;15.86;73.70
17764;BME280;22245;52.832;13.816;2023-08-31T09:27:36;100619.09;;;15.94;72.92
17764;BME280;22245;52.832;13.816;2023-08-31T09:31:05;100634.38;;;16.01;72.44
17764;BME280;22245;52.832;13.816;2023-08-31T09:34:33;100629.47;;;16.05;68.88
17764;BME280;22245;52.832;13.816;2023-08-31T09:37:57;100637.88;;;16.02;68.07
17764;BME280;22245;52.832;13.816;2023-08-31T09:41:19;100639.06;;;15.99;68.38
17764;BME280;22245;52.832;13.816;2023-08-31T09:44:43;100637.19;;;16.00;70.11
17764;BME280;22245;52.832;13.816;2023-08-31T09:48:05;100635.03;;;16.03;70.10
17764;BME280;22245;52.832;13.816;2023-08-31T09:51:27;100626.94;;;16.12;66.49
17764;BME280;22245;52.832;13.816;2023-08-31T09:54:53;100629.28;;;16.15;65.72
17764;BME280;22245;52.832;13.816;2023-08-31T09:58:17;100637.69;;;16.20;65.60
17764;BME280;22245;52.832;13.816;2023-08-31T10:01:41;100631.47;;;16.19;65.85
17764;BME280;22245;52.832;13.816;2023-08-31T10:05:05;100636.16;;;16.26;65.12
17764;BME280;22245;52.832;13.816;2023-08-31T10:08:27;100637.50;;;16.30;65.96
17764;BME280;22245;52.832;13.816;2023-08-31T10:11:53;100636.34;;;16.32;64.83
17764;BME280;22245;52.832;13.816;2023-08-31T10:15:15;100634.66;;;16.31;64.83
17764;BME280;22245;52.832;13.816;2023-08-31T10:18:37;100633.28;;;16.27;65.69
17764;BME280;22245;52.832;13.816;2023-08-31T10:22:00;100647.06;;;16.32;66.53
17764;BME280;22245;52.832;13.816;2023-08-31T10:25:24;100630.25;;;16.39;64.77
17764;BME280;22245;52.832;13.816;2023-08-31T10:28:48;100630.22;;;16.47;65.17
17764;BME280;22245;52.832;13.816;2023-08-31T10:32:17;100641.81;;;16.56;64.21
17764;BME280;22245;52.832;13.816;2023-08-31T10:35:43;100638.22;;;16.63;66.59
17764;BME280;22245;52.832;13.816;2023-08-31T10:39:15;100645.94;;;16.75;64.79
17764;BME280;22245;52.832;13.816;2023-08-31T10:42:44;100641.88;;;16.79;67.20
17764;BME280;22245;52.832;13.816;2023-08-31T10:49:55;100648.00;;;16.56;70.39
17764;BME280;22245;52.832;13.816;2023-08-31T10:53:28;100644.03;;;16.44;70.88
17764;BME280;22245;52.832;13.816;2023-08-31T10:57:03;100631.63;;;16.34;70.47
17764;BME280;22245;52.832;13.816;2023-08-31T11:00:50;100632.28;;;16.37;68.07
17764;BME280;22245;52.832;13.816;2023-08-31T11:04:13;100642.34;;;16.43;66.61
17764;BME280;22245;52.832;13.816;2023-08-31T11:07:36;100636.31;;;16.41;67.53
17764;BME280;22245;52.832;13.816;2023-08-31T11:10:58;100642.00;;;16.46;67.96
17764;BME280;22245;52.832;13.816;2023-08-31T11:14:19;100637.63;;;16.45;68.96
17764;BME280;22245;52.832;13.816;2023-08-31T11:17:42;100638.09;;;16.57;67.21
17764;BME280;22245;52.832;13.816;2023-08-31T11:21:06;100636.59;;;16.54;68.40
17764;BME280;22245;52.832;13.816;2023-08-31T11:24:28;100641.97;;;16.54;67.75
17764;BME280;22245;52.832;13.816;2023-08-31T11:27:53;100644.28;;;16.66;66.60
17764;BME280;22245;52.832;13.816;2023-08-31T11:31:23;100640.09;;;16.63;67.66
17764;BME280;22245;52.832;13.816;2023-08-31T11:34:45;100653.34;;;16.64;67.23
17764;BME280;22245;52.832;13.816;2023-08-31T11:38:08;100652.34;;;16.66;69.10
17764;BME280;22245;52.832;13.816;2023-08-31T11:41:31;100649.69;;;16.57;72.68
17764;BME280;22245;52.832;13.816;2023-08-31T11:44:56;100661.47;;;16.48;69.71
17764;BME280;22245;52.832;13.816;2023-08-31T11:48:18;100652.59;;;16.39;69.64
17764;BME280;22245;52.832;13.816;2023-08-31T11:51:40;100649.91;;;16.31;71.71
17764;BME280;22245;52.832;13.816;2023-08-31T11:55:10;100649.41;;;16.27;71.05
17764;BME280;22245;52.832;13.816;2023-08-31T11:58:32;100648.59;;;16.27;72.19
17764;BME280;22245;52.832;13.816;2023-08-31T12:01:56;100648.25;;;16.30;71.96
17764;BME280;22245;52.832;13.816;2023-08-31T12:05:18;100653.28;;;16.33;74.50
17764;BME280;22245;52.832;13.816;2023-08-31T12:08:39;100651.75;;;16.39;75.28
17764;BME280;22245;52.832;13.816;2023-08-31T12:12:04;100656.78;;;16.42;75.13
17764;BME280;22245;52.832;13.816;2023-08-31T12:15:30;100651.72;;;16.47;73.15
17764;BME280;22245;52.832;13.816;2023-08-31T12:18:52;100650.56;;;16.49;72.09
17764;BME280;22245;52.832;13.816;2023-08-31T12:22:15;100639.28;;;16.54;72.20
17764;BME280;22245;52.832;13.816;2023-08-31T12:25:36;100638.75;;;16.59;71.18
17764;BME280;22245;52.832;13.816;2023-08-31T12:29:00;100636.91;;;16.68;70.80
17764;BME280;22245;52.832;13.816;2023-08-31T12:32:22;100642.22;;;16.76;68.26
17764;BME280;22245;52.832;13.816;2023-08-31T12:35:44;100639.50;;;16.84;61.88
17764;BME280;22245;52.832;13.816;2023-08-31T12:39:06;100643.88;;;16.85;62.99
17764;BME280;22245;52.832;13.816;2023-08-31T12:42:30;100646.34;;;16.95;62.30
17764;BME280;22245;52.832;13.816;2023-08-31T12:45:52;100653.25;;;16.98;61.33
17764;BME280;22245;52.832;13.816;2023-08-31T12:49:15;100653.56;;;17.03;61.77
17764;BME280;22245;52.832;13.816;2023-08-31T12:52:37;100657.25;;;17.10;62.34
17764;BME280;22245;52.832;13.816;2023-08-31T12:56:05;100664.09;;;17.13;61.98
17764;BME280;22245;52.832;13.816;2023-08-31T12:59:27;100666.63;;;17.14;62.09
17764;BME280;22245;52.832;13.816;2023-08-31T13:02:51;100672.84;;;17.15;62.23
17764;BME280;22245;52.832;13.816;2023-08-31T13:06:13;100666.28;;;17.17;61.61
17764;BME280;22245;52.832;13.816;2023-08-31T13:09:37;100664.25;;;17.19;62.55
17764;BME280;22245;52.832;13.816;2023-08-31T13:12:59;100666.88;;;17.28;62.71
17764;BME280;22245;52.832;13.816;2023-08-31T13:16:20;100670.91;;;17.32;63.19
17764;BME280;22245;52.832;13.816;2023-08-31T13:19:46;100677.06;;;17.41;62.83
17764;BME280;22245;52.832;13.816;2023-08-31T13:23:07;100668.47;;;17.45;60.64
17764;BME280;22245;52.832;13.816;2023-08-31T13:26:29;100679.34;;;17.52;61.32
17764;BME280;22245;52.832;13.816;2023-08-31T13:29:51;100683.25;;;17.49;59.35
17764;BME280;22245;52.832;13.816;2023-08-31T13:33:13;100689.16;;;17.45;57.35
17764;BME280;22245;52.832;13.816;2023-08-31T13:36:37;100691.56;;;17.40;58.20
17764;BME280;22245;52.832;13.816;2023-08-31T13:39:59;100689.72;;;17.32;60.01
17764;BME280;22245;52.832;13.816;2023-08-31T13:43:21;100701.78;;;17.13;65.24
17764;BME280;22245;52.832;13.816;2023-08-31T13:46:43;100694.59;;;16.97;68.33
17764;BME280;22245;52.832;13.816;2023-08-31T13:50:05;100696.50;;;16.88;73.58
17764;BME280;22245;52.832;13.816;2023-08-31T13:53:28;100688.78;;;16.76;74.95
17764;BME280;22245;52.832;13.816;2023-08-31T13:56:50;100683.59;;;16.67;76.89
17764;BME280;22245;52.832;13.816;2023-08-31T14:00:12;100691.03;;;16.56;77.88
17764;BME280;22245;52.832;13.816;2023-08-31T14:03:34;100686.00;;;16.45;79.37
17764;BME280;22245;52.832;13.816;2023-08-31T14:06:56;100678.31;;;16.33;76.55
17764;BME280;22245;52.832;13.816;2023-08-31T14:10:19;100678.97;;;16.27;76.48
17764;BME280;22245;52.832;13.816;2023-08-31T14:13:43;100684.88;;;16.23;76.05
17764;BME280;22245;52.832;13.816;2023-08-31T14:17:06;100677.28;;;16.26;77.49
17764;BME280;22245;52.832;13.816;2023-08-31T14:20:28;100691.59;;;16.27;78.95
17764;BME280;22245;52.832;13.816;2023-08-31T14:23:50;100692.06;;;16.39;77.70
17764;BME280;22245;52.832;13.816;2023-08-31T14:27:17;100694.06;;;16.45;77.19
17764;BME280;22245;52.832;13.816;2023-08-31T14:30:38;100690.38;;;16.46;77.87
17764;BME280;22245;52.832;13.816;2023-08-31T14:34:00;100679.97;;;16.43;79.27
17764;BME280;22245;52.832;13.816;2023-08-31T14:37:22;100683.81;;;16.40;81.27
17764;BME280;22245;52.832;13.816;2023-08-31T14:40:44;100672.59;;;16.37;81.80
17764;BME280;22245;52.832;13.816;2023-08-31T14:44:08;100670.91;;;16.35;80.20
17764;BME280;22245;52.832;13.816;2023-08-31T14:47:30;100674.28;;;16.29;81.84
17764;BME280;22245;52.832;13.816;2023-08-31T14:50:52;100683.53;;;16.27;83.22
17764;BME280;22245;52.832;13.816;2023-08-31T14:54:13;100684.88;;;16.23;84.37
17764;BME280;22245;52.832;13.816;2023-08-31T14:57:34;100687.25;;;16.17;85.08
17764;BME280;22245;52.832;13.816;2023-08-31T15:00:57;100749.69;;;16.19;82.67
17764;BME280;22245;52.832;13.816;2023-08-31T15:04:20;100820.72;;;16.09;80.54
17764;BME280;22245;52.832;13.816;2023-08-31T15:07:41;100848.25;;;15.25;82.54
17764;BME280;22245;52.832;13.816;2023-08-31T15:11:03;100856.56;;;14.32;76.36
17764;BME280;22245;52.832;13.816;2023-08-31T15:14:25;100844.38;;;13.84;80.09
17764;BME280;22245;52.832;13.816;2023-08-31T15:17:48;100841.28;;;13.51;81.60
17764;BME280;22245;52.832;13.816;2023-08-31T15:21:10;100829.97;;;13.29;83.13
17764;BME280;22245;52.832;13.816;2023-08-31T15:24:31;100822.09;;;13.17;85.79
17764;BME280;22245;52.832;13.816;2023-08-31T15:27:53;100785.59;;;12.98;87.77
17764;BME280;22245;52.832;13.816;2023-08-31T15:31:15;100786.88;;;12.84;89.61
17764;BME280;22245;52.832;13.816;2023-08-31T15:34:38;100781.13;;;12.79;93.15
17764;BME280;22245;52.832;13.816;2023-08-31T15:38:01;100774.41;;;12.75;93.84
17764;BME280;22245;52.832;13.816;2023-08-31T15:41:23;100772.13;;;12.80;95.04
17764;BME280;22245;52.832;13.816;2023-08-31T15:44:45;100771.72;;;12.85;95.29
17764;BME280;22245;52.832;13.816;2023-08-31T15:48:06;100784.38;;;13.21;96.08
17764;BME280;22245;52.832;13.816;2023-08-31T15:51:30;100780.06;;;13.48;96.40
17764;BME280;22245;52.832;13.816;2023-08-31T15:54:53;100772.09;;;13.84;98.89
17764;BME280;22245;52.832;13.816;2023-08-31T15:58:15;100773.16;;;14.27;97.84
17764;BME280;22245;52.832;13.816;2023-08-31T16:01:37;100772.66;;;14.50;92.37
17764;BME280;22245;52.832;13.816;2023-08-31T16:05:04;100785.44;;;14.56;92.80
17764;BME280;22245;52.832;13.816;2023-08-31T16:08:27;100789.16;;;14.82;91.55
17764;BME280;22245;52.832;13.816;2023-08-31T16:11:50;100779.66;;;15.22;93.49
17764;BME280;22245;52.832;13.816;2023-08-31T16:15:12;100781.13;;;15.59;91.21
17764;BME280;22245;52.832;13.816;2023-08-31T16:18:33;100780.00;;;15.78;86.44
17764;BME280;22245;52.832;13.816;2023-08-31T16:21:55;100780.72;;;15.89;89.06
17764;BME280;22245;52.832;13.816;2023-08-31T16:25:19;100767.66;;;16.11;87.52
17764;BME280;22245;52.832;13.816;2023-08-31T16:28:41;100761.13;;;16.30;86.02
17764;BME280;22245;52.832;13.816;2023-08-31T16:32:03;100762.28;;;16.44;86.26
17764;BME280;22245;52.832;13.816;2023-08-31T16:35:25;100775.03;;;16.58;81.50
17764;BME280;22245;52.832;13.816;2023-08-31T16:38:48;100765.94;;;16.59;82.65
17764;BME280;22245;52.832;13.816;2023-08-31T16:42:12;100759.75;;;16.42;81.22
17764;BME280;22245;52.832;13.816;2023-08-31T16:45:34;100773.69;;;16.21;82.81
17764;BME280;22245;52.832;13.816;2023-08-31T16:48:56;100777.41;;;15.95;80.57
17764;BME280;22245;52.832;13.816;2023-08-31T16:52:18;100777.97;;;15.72;82.89
17764;BME280;22245;52.832;13.816;2023-08-31T16:55:40;100768.22;;;15.55;82.58
17764;BME280;22245;52.832;13.816;2023-08-31T16:59:03;100775.53;;;15.36;84.78
17764;BME280;22245;52.832;13.816;2023-08-31T17:02:25;100775.59;;;15.18;86.05
17764;BME280;22245;52.832;13.816;2023-08-31T17:05:50;100781.06;;;15.00;87.31
17764;BME280;22245;52.832;13.816;2023-08-31T17:09:12;100789.69;;;14.85;87.51
17764;BME280;22245;52.832;13.816;2023-08-31T17:12:34;100786.56;;;14.72;86.50
17764;BME280;22245;52.832;13.816;2023-08-31T17:15:57;100792.03;;;14.62;87.75
17764;BME280;22245;52.832;13.816;2023-08-31T17:19:19;100790.44;;;14.51;87.03
17764;BME280;22245;52.832;13.816;2023-08-31T17:22:41;100785.16;;;14.41;87.75
17764;BME280;22245;52.832;13.816;2023-08-31T17:26:03;100784.56;;;14.29;87.79
17764;BME280;22245;52.832;13.816;2023-08-31T17:29:25;100781.56;;;14.14;90.27
17764;BME280;22245;52.832;13.816;2023-08-31T17:32:48;100783.66;;;14.02;92.99
17764;BME280;22245;52.832;13.816;2023-08-31T17:36:11;100773.84;;;13.93;90.45
17764;BME280;22245;52.832;13.816;2023-08-31T17:39:33;100776.13;;;13.88;91.46
17764;BME280;22245;52.832;13.816;2023-08-31T17:42:55;100771.41;;;13.82;91.87
17764;BME280;22245;52.832;13.816;2023-08-31T17:46:16;100773.13;;;13.73;92.45